Latty, Ohio
Current Conditions -  °F | °C
As of 10:55 AM on Thursday 18 Dec 2014 (Local Time) from KGWB Reporting Station
Overcast Overcast  
Wind Chill: 24°   Ceiling: 1300
Heat Index: 30°   Visibility: 10mi
Dew Point: 23°   Wind: 6mph
Humidity: 75%   Direction: 250°WSW
Pressure: 30.27"   Gusts: NA
Location:  41.09°N, 84.59°W
Report Text: KGWB 181555Z AUTO 25005KT 10SM BKN013 OVC018 M01/M05 A3027 RMK AO2
Loading
Personal Weather Stations






























Interactive Weather Map New forecast layout! Learn more

10-Day Weather Forecast

Advertisements
Track Severe Weather on mobile